Time;durP1;ratioP1;P1;durP2;ratioP2;P2;SDS_P1;SDS_P2;PMS_P1;PMS_P2;Temp;Humidity;BMP_temperature;BMP_pressure;BME280_temperature;BME280_humidity;BME280_pressure;Samples;Min_cycle;Max_cycle;Signal;HPM_P1;HPM_P2
2021/04/25 00:00:46;;;;;;;4.87;2.57;;;7.90;65.40;;;;;;5030811;28;20437;-49
2021/04/25 00:03:12;;;;;;;4.00;3.20;;;7.90;66.30;;;;;;5030505;28;20532;-49
2021/04/25 00:05:39;;;;;;;4.03;2.60;;;7.80;65.50;;;;;;5030628;28;20512;-49
2021/04/25 00:08:06;;;;;;;4.30;2.60;;;7.70;65.40;;;;;;5030701;28;20456;-49
2021/04/25 00:10:33;;;;;;;5.67;3.20;;;7.50;66.00;;;;;;5030979;28;20461;-49
2021/04/25 00:13:00;;;;;;;4.87;3.40;;;7.50;67.00;;;;;;5030389;28;20437;-49
2021/04/25 00:15:28;;;;;;;8.57;3.20;;;7.40;67.30;;;;;;5030655;28;20448;-50
2021/04/25 00:17:54;;;;;;;4.97;2.93;;;7.60;67.80;;;;;;5030669;28;20433;-49
2021/04/25 00:20:21;;;;;;;5.00;2.60;;;7.70;67.90;;;;;;5030617;28;20516;-50
2021/04/25 00:22:48;;;;;;;6.80;2.70;;;7.60;68.00;;;;;;5030456;28;20493;-50
2021/04/25 00:25:15;;;;;;;8.57;2.70;;;7.60;67.80;;;;;;5012644;28;20489;-49
2021/04/25 00:27:42;;;;;;;4.17;2.60;;;7.60;67.80;;;;;;5030574;28;20444;-49
2021/04/25 00:30:12;;;;;;;5.60;2.70;;;7.60;68.20;;;;;;5030567;28;20747;-49
2021/04/25 00:32:38;;;;;;;6.70;3.03;;;7.90;68.50;;;;;;5030151;28;20461;-50
2021/04/25 00:35:06;;;;;;;4.80;3.30;;;7.60;68.00;;;;;;5030246;28;20467;-50
2021/04/25 00:37:32;;;;;;;6.63;3.00;;;7.70;68.50;;;;;;5030337;28;20789;-49
2021/04/25 00:39:58;;;;;;;4.60;3.00;;;7.70;68.30;;;;;;5030423;28;20468;-49
2021/04/25 00:42:25;;;;;;;5.43;2.73;;;7.70;68.60;;;;;;5030199;28;20433;-49
2021/04/25 00:44:52;;;;;;;5.00;3.20;;;7.60;68.60;;;;;;5030173;28;20602;-49
2021/04/25 00:47:19;;;;;;;3.83;2.73;;;7.90;68.90;;;;;;5012496;28;20826;-50
2021/04/25 00:49:46;;;;;;;5.70;3.17;;;7.60;68.60;;;;;;5030376;28;20497;-50
2021/04/25 00:52:12;;;;;;;7.70;4.07;;;7.70;69.00;;;;;;5030159;28;20964;-50
2021/04/25 00:54:40;;;;;;;4.90;2.20;;;7.70;69.30;;;;;;5030141;28;20441;-49
2021/04/25 00:57:13;;;;;;;5.23;3.00;;;7.90;69.10;;;;;;5030284;28;20801;-49
2021/04/25 00:59:39;;;;;;;5.80;3.53;;;7.70;69.40;;;;;;5030766;28;20438;-50
2021/04/25 01:02:06;;;;;;;5.70;2.90;;;7.90;69.60;;;;;;5030084;28;21004;-50
2021/04/25 01:04:33;;;;;;;4.83;3.40;;;7.90;69.30;;;;;;5029724;28;21000;-49
2021/04/25 01:07:01;;;;;;;7.70;3.43;;;7.90;69.40;;;;;;5030059;28;20431;-51
2021/04/25 01:09:27;;;;;;;5.30;3.30;;;7.50;68.80;;;;;;5012390;28;20462;-48
2021/04/25 01:11:54;;;;;;;5.80;3.20;;;7.70;68.60;;;;;;5030009;28;20434;-50
2021/04/25 01:14:20;;;;;;;6.50;3.83;;;7.90;69.10;;;;;;5029761;28;20507;-49
2021/04/25 01:16:47;;;;;;;5.80;3.40;;;7.60;68.80;;;;;;5029951;28;20515;-49
2021/04/25 01:19:13;;;;;;;6.63;3.30;;;7.90;69.50;;;;;;5030115;28;20473;-49
2021/04/25 01:21:40;;;;;;;5.63;3.17;;;7.30;68.90;;;;;;5030092;28;20460;-49
2021/04/25 01:24:07;;;;;;;4.77;3.07;;;7.80;69.00;;;;;;5029710;28;20489;-50
2021/04/25 01:26:33;;;;;;;5.50;2.67;;;7.70;69.30;;;;;;5029931;28;20443;-48
2021/04/25 01:29:00;;;;;;;6.80;3.07;;;7.90;69.60;;;;;;5029928;28;20541;-48
2021/04/25 01:31:26;;;;;;;4.83;2.43;;;7.80;69.80;;;;;;5029936;28;20941;-49
2021/04/25 01:33:52;;;;;;;6.80;2.60;;;7.70;70.00;;;;;;5029612;28;20794;-50
2021/04/25 01:36:18;;;;;;;5.90;3.40;;;8.10;69.90;;;;;;5029701;28;20470;-49
2021/04/25 01:38:45;;;;;;;4.83;3.23;;;7.90;70.40;;;;;;5029947;28;20441;-49
2021/04/25 01:41:12;;;;;;;7.10;3.33;;;8.20;71.00;;;;;;5030148;28;20438;-48
2021/04/25 01:43:38;;;;;;;6.00;2.97;;;7.80;70.30;;;;;;5029645;28;20441;-49
2021/04/25 01:46:04;;;;;;;4.93;3.03;;;7.60;69.80;;;;;;5031425;28;20465;-49
2021/04/25 01:48:30;;;;;;;6.47;3.50;;;8.10;70.40;;;;;;5033293;28;20482;-50
2021/04/25 01:50:57;;;;;;;5.17;3.20;;;7.90;70.10;;;;;;5033302;28;20433;-49
2021/04/25 01:53:23;;;;;;;3.37;2.47;;;7.80;69.80;;;;;;5032947;28;20545;-49
2021/04/25 01:55:50;;;;;;;8.73;3.00;;;8.20;69.90;;;;;;5033324;28;20455;-49
2021/04/25 01:58:16;;;;;;;7.10;3.70;;;8.20;70.00;;;;;;5032973;28;20528;-50
2021/04/25 02:00:46;;;;;;;5.33;2.73;;;8.20;70.10;;;;;;5014974;28;20454;-49
2021/04/25 02:03:13;;;;;;;3.60;3.00;;;7.60;69.60;;;;;;5032797;28;20954;-49
2021/04/25 02:05:41;;;;;;;3.83;2.30;;;8.10;69.90;;;;;;5014741;28;20473;-49
2021/04/25 02:08:08;;;;;;;8.27;2.60;;;8.10;69.60;;;;;;5031784;28;20441;-49
2021/04/25 02:10:35;;;;;;;6.70;3.17;;;8.20;69.70;;;;;;5014494;28;20461;-50
2021/04/25 02:13:03;;;;;;;5.90;3.00;;;8.00;69.30;;;;;;5032577;28;20494;-50
2021/04/25 02:15:30;;;;;;;3.20;2.70;;;8.40;68.90;;;;;;5032828;28;20981;-49
2021/04/25 02:17:56;;;;;;;8.50;2.90;;;8.30;69.00;;;;;;5032980;28;20439;-49
2021/04/25 02:20:24;;;;;;;5.23;2.57;;;8.20;68.60;;;;;;5032950;28;20507;-48
2021/04/25 02:22:51;;;;;;;3.10;2.10;;;8.40;69.10;;;;;;5032576;28;20433;-49
2021/04/25 02:25:19;;;;;;;6.73;2.43;;;8.30;68.70;;;;;;5032614;28;20547;-49
2021/04/25 02:27:46;;;;;;;5.17;2.30;;;8.20;68.40;;;;;;5033134;28;20442;-49
2021/04/25 02:30:16;;;;;;;3.00;2.40;;;7.80;67.50;;;;;;5035060;28;20731;-50
2021/04/25 02:32:42;;;;;;;6.40;2.13;;;8.20;67.50;;;;;;5037094;28;20433;-49
2021/04/25 02:35:12;;;;;;;3.30;2.07;;;8.30;67.50;;;;;;5037091;28;20461;-49
2021/04/25 02:37:39;;;;;;;3.23;1.70;;;8.20;67.80;;;;;;5015377;28;20494;-49
2021/04/25 02:40:07;;;;;;;2.40;2.20;;;8.30;67.30;;;;;;5032817;28;20545;-49
2021/04/25 02:42:33;;;;;;;3.93;2.00;;;8.30;67.30;;;;;;5032186;28;20925;-48
2021/04/25 02:45:00;;;;;;;3.27;2.47;;;8.20;66.70;;;;;;5032264;28;20485;-49
2021/04/25 02:47:27;;;;;;;6.03;2.07;;;7.70;66.80;;;;;;5032903;28;20431;-48
2021/04/25 02:49:53;;;;;;;6.67;2.30;;;8.00;66.90;;;;;;5032278;28;20482;-48
2021/04/25 02:52:24;;;;;;;6.03;2.20;;;7.90;66.90;;;;;;5031885;28;20970;-50
2021/04/25 02:54:51;;;;;;;4.50;2.57;;;8.00;67.30;;;;;;5032414;28;20768;-49
2021/04/25 02:57:17;;;;;;;3.80;2.07;;;7.40;66.80;;;;;;5032026;28;20448;-49
2021/04/25 02:59:43;;;;;;;3.10;1.97;;;8.10;67.60;;;;;;5032104;28;20433;-49
2021/04/25 03:02:10;;;;;;;3.30;2.17;;;7.90;67.50;;;;;;5014257;28;20652;-49
2021/04/25 03:04:37;;;;;;;3.97;2.37;;;7.90;67.40;;;;;;5031535;28;20474;-49
2021/04/25 03:07:03;;;;;;;7.63;2.00;;;7.90;67.50;;;;;;5031867;28;20468;-50
2021/04/25 03:09:30;;;;;;;4.43;2.30;;;7.80;67.50;;;;;;5031836;28;20561;-49
2021/04/25 03:11:56;;;;;;;4.00;2.13;;;7.80;67.90;;;;;;5031889;28;20437;-50
2021/04/25 03:14:22;;;;;;;3.23;2.13;;;7.60;68.10;;;;;;5031418;28;20434;-49
2021/04/25 03:16:48;;;;;;;3.23;2.13;;;7.50;68.10;;;;;;5031638;28;20490;-49
2021/04/25 03:19:15;;;;;;;5.30;2.30;;;7.60;68.70;;;;;;5031588;28;20783;-49
2021/04/25 03:21:42;;;;;;;4.80;2.30;;;7.70;68.70;;;;;;5031609;28;20460;-49
2021/04/25 03:24:09;;;;;;;6.80;2.73;;;7.70;69.40;;;;;;5031211;28;20501;-48
2021/04/25 03:26:35;;;;;;;4.50;2.50;;;7.50;69.60;;;;;;5031358;28;20450;-49
2021/04/25 03:29:02;;;;;;;4.93;2.80;;;7.80;70.30;;;;;;5031646;28;20454;-48
2021/04/25 03:31:28;;;;;;;5.03;3.17;;;7.70;70.20;;;;;;5031751;28;21018;-50
2021/04/25 03:33:54;;;;;;;6.73;3.60;;;8.00;70.90;;;;;;5031127;28;20438;-49
2021/04/25 03:36:21;;;;;;;7.97;4.70;;;7.70;70.60;;;;;;5032001;28;20470;-49
2021/04/25 03:38:48;;;;;;;9.07;5.63;;;7.60;71.50;;;;;;5031903;28;20441;-49
2021/04/25 03:41:14;;;;;;;13.40;6.10;;;7.70;72.60;;;;;;5031935;28;20436;-49
2021/04/25 03:43:40;;;;;;;8.70;6.00;;;7.60;73.30;;;;;;5031047;28;20474;-50
2021/04/25 03:46:07;;;;;;;7.50;6.10;;;7.60;73.70;;;;;;5031103;28;20796;-50
2021/04/25 03:48:33;;;;;;;7.60;5.13;;;7.00;73.60;;;;;;5030989;28;20467;-50
2021/04/25 03:50:59;;;;;;;9.90;5.60;;;7.20;74.80;;;;;;5031341;28;20455;-50
2021/04/25 03:53:26;;;;;;;12.00;5.70;;;7.00;74.80;;;;;;5030827;28;20448;-50
2021/04/25 03:55:53;;;;;;;6.00;5.00;;;7.10;74.90;;;;;;5031115;28;20490;-49
2021/04/25 03:58:19;;;;;;;8.20;5.30;;;7.00;74.80;;;;;;5031051;28;20475;-51
2021/04/25 04:00:45;;;;;;;5.90;4.60;;;7.10;75.10;;;;;;5031058;28;20486;-50
2021/04/25 04:03:12;;;;;;;9.40;5.87;;;6.80;74.90;;;;;;5030396;28;20465;-50
2021/04/25 04:05:38;;;;;;;7.97;5.43;;;6.90;75.40;;;;;;5012981;28;20493;-50
2021/04/25 04:08:05;;;;;;;8.60;4.93;;;6.50;75.00;;;;;;5030314;28;20432;-50
2021/04/25 04:10:31;;;;;;;6.27;4.40;;;6.90;75.50;;;;;;5012961;28;20451;-51
2021/04/25 04:12:58;;;;;;;11.07;6.80;;;6.80;75.70;;;;;;5030533;28;20573;-50
2021/04/25 04:15:24;;;;;;;6.53;5.03;;;6.70;75.80;;;;;;5030624;28;20444;-50
2021/04/25 04:17:50;;;;;;;8.40;5.53;;;6.80;75.60;;;;;;5030623;28;20426;-49
2021/04/25 04:20:17;;;;;;;9.23;4.90;;;6.80;75.90;;;;;;5030739;28;20440;-50
2021/04/25 04:22:43;;;;;;;8.20;4.97;;;6.90;75.80;;;;;;5030287;28;21158;-48
2021/04/25 04:25:10;;;;;;;5.43;4.67;;;7.20;76.20;;;;;;5030479;28;20480;-49
2021/04/25 04:27:37;;;;;;;8.67;4.70;;;6.60;75.10;;;;;;5030513;28;20472;-49
2021/04/25 04:30:05;;;;;;;9.47;5.10;;;7.20;75.40;;;;;;5030488;28;20440;-49
2021/04/25 04:32:31;;;;;;;10.73;5.47;;;6.90;74.90;;;;;;5030122;28;20432;-48
2021/04/25 04:34:58;;;;;;;9.90;5.60;;;7.00;75.00;;;;;;5030652;28;20468;-49
2021/04/25 04:37:24;;;;;;;6.83;4.70;;;7.30;75.40;;;;;;5030417;28;20429;-49
2021/04/25 04:39:50;;;;;;;9.90;5.23;;;7.20;75.40;;;;;;5030631;28;20469;-50
2021/04/25 04:42:17;;;;;;;5.97;4.70;;;7.30;75.50;;;;;;5030532;28;20464;-49
2021/04/25 04:44:43;;;;;;;8.60;4.73;;;7.30;75.00;;;;;;5030187;28;20504;-50
2021/04/25 04:47:10;;;;;;;10.87;4.63;;;7.50;75.30;;;;;;5030388;28;20503;-49
2021/04/25 04:49:36;;;;;;;7.50;4.87;;;7.60;75.30;;;;;;5030445;28;20433;-49
2021/04/25 04:52:03;;;;;;;8.43;4.20;;;7.70;75.30;;;;;;5030528;28;20853;-49
2021/04/25 04:54:30;;;;;;;5.73;4.00;;;7.40;74.90;;;;;;5030072;28;20435;-49
2021/04/25 04:56:56;;;;;;;6.80;3.80;;;7.80;75.10;;;;;;5030217;28;20590;-49
2021/04/25 04:59:22;;;;;;;5.90;3.80;;;7.70;74.80;;;;;;5030280;28;20460;-52
2021/04/25 05:01:48;;;;;;;5.63;3.63;;;7.80;74.60;;;;;;5030312;28;20541;-49
2021/04/25 05:04:16;;;;;;;6.43;4.30;;;7.70;74.10;;;;;;5012223;28;20579;-49
2021/04/25 05:06:42;;;;;;;10.60;3.80;;;7.90;74.20;;;;;;5030187;28;20457;-50
2021/04/25 05:09:08;;;;;;;6.77;3.47;;;7.80;74.20;;;;;;5030235;28;20450;-50
2021/04/25 05:11:34;;;;;;;8.40;4.30;;;7.80;74.10;;;;;;5030015;28;20430;-49
2021/04/25 05:14:01;;;;;;;7.27;3.80;;;7.80;73.70;;;;;;5029924;28;20434;-49
2021/04/25 05:16:27;;;;;;;5.67;3.30;;;8.20;73.40;;;;;;5029806;28;20449;-48
2021/04/25 05:18:53;;;;;;;6.73;4.37;;;8.20;73.40;;;;;;5030190;28;20445;-49
2021/04/25 05:21:20;;;;;;;6.60;3.67;;;8.20;73.00;;;;;;5032258;28;20437;-49
2021/04/25 05:23:47;;;;;;;7.17;4.20;;;8.30;73.10;;;;;;5033649;28;20525;-49
2021/04/25 05:26:13;;;;;;;5.73;3.60;;;8.30;73.10;;;;;;5033536;28;20548;-49
2021/04/25 05:28:39;;;;;;;9.63;4.00;;;7.90;72.40;;;;;;5015581;28;20557;-50
2021/04/25 05:31:05;;;;;;;5.23;3.97;;;8.20;72.80;;;;;;5033715;28;20504;-49
2021/04/25 05:33:32;;;;;;;7.07;3.93;;;8.50;72.80;;;;;;5033420;28;20544;-50
2021/04/25 05:35:58;;;;;;;6.10;3.83;;;8.50;72.50;;;;;;5033383;28;20553;-49
2021/04/25 05:38:25;;;;;;;7.60;4.10;;;8.30;71.20;;;;;;5033766;28;20437;-50
2021/04/25 05:40:51;;;;;;;6.20;4.00;;;8.20;71.40;;;;;;5034134;28;20458;-50
2021/04/25 05:43:18;;;;;;;5.37;3.40;;;8.50;72.40;;;;;;5033799;28;20437;-50
2021/04/25 05:45:44;;;;;;;6.83;3.37;;;8.20;72.00;;;;;;5033884;28;20532;-49
2021/04/25 05:48:10;;;;;;;5.90;4.00;;;8.00;71.60;;;;;;5034091;28;20429;-49
2021/04/25 05:50:36;;;;;;;7.00;3.60;;;8.20;71.50;;;;;;5033948;28;20936;-49
2021/04/25 05:53:03;;;;;;;6.40;3.90;;;8.10;71.20;;;;;;5033860;28;20472;-50
2021/04/25 05:55:30;;;;;;;8.63;4.20;;;8.10;70.90;;;;;;5033739;28;20452;-49
2021/04/25 05:57:56;;;;;;;6.30;3.20;;;8.20;71.30;;;;;;5033477;28;20434;-50
2021/04/25 06:00:25;;;;;;;5.37;3.57;;;8.30;71.00;;;;;;5033567;28;20463;-51
2021/04/25 06:02:52;;;;;;;5.13;3.60;;;8.30;70.50;;;;;;5033365;28;20432;-50
2021/04/25 06:05:19;;;;;;;10.50;3.43;;;8.20;70.20;;;;;;5015524;28;20508;-50
2021/04/25 06:07:50;;;;;;;3.20;2.67;;;8.40;70.00;;;;;;5033508;28;20469;-51
2021/04/25 06:10:17;;;;;;;4.13;2.60;;;8.30;68.70;;;;;;5033495;28;20533;-51
2021/04/25 06:12:47;;;;;;;4.10;2.80;;;8.20;68.40;;;;;;5033306;28;20523;-51
2021/04/25 06:15:15;;;;;;;6.00;3.00;;;8.60;68.50;;;;;;5033329;28;20497;-49
2021/04/25 06:17:41;;;;;;;5.63;2.90;;;8.50;67.50;;;;;;5033408;28;20424;-51
2021/04/25 06:20:08;;;;;;;4.00;2.30;;;8.50;67.70;;;;;;5033281;28;20488;-51
2021/04/25 06:22:34;;;;;;;5.33;2.60;;;8.50;67.80;;;;;;5032928;28;20661;-51
2021/04/25 06:25:00;;;;;;;12.43;5.17;;;8.60;67.90;;;;;;5014970;28;20512;-50
2021/04/25 06:27:27;;;;;;;6.97;3.37;;;8.60;67.80;;;;;;5033085;28;20444;-51
2021/04/25 06:29:54;;;;;;;3.40;2.97;;;8.50;67.00;;;;;;5033123;28;20537;-51
2021/04/25 06:32:21;;;;;;;3.50;2.73;;;8.20;67.30;;;;;;5032183;28;20587;-50
2021/04/25 06:34:47;;;;;;;4.80;2.60;;;8.40;66.10;;;;;;5032728;28;20462;-51
2021/04/25 06:37:14;;;;;;;3.77;2.50;;;8.60;66.30;;;;;;5032933;28;20437;-51
2021/04/25 06:39:40;;;;;;;8.57;3.20;;;8.50;66.10;;;;;;5032709;28;20533;-49
2021/04/25 06:42:06;;;;;;;4.60;2.47;;;8.60;66.40;;;;;;5032742;28;21025;-51
2021/04/25 06:44:32;;;;;;;6.43;2.67;;;8.50;65.80;;;;;;5014808;28;20564;-50
2021/04/25 06:47:00;;;;;;;3.53;2.30;;;8.60;65.60;;;;;;5032496;28;20544;-50
2021/04/25 06:49:27;;;;;;;4.90;2.80;;;8.50;64.60;;;;;;5032458;28;20466;-50
2021/04/25 06:51:54;;;;;;;3.10;2.20;;;9.10;65.70;;;;;;5032490;28;20435;-50
2021/04/25 06:54:20;;;;;;;5.77;2.80;;;8.60;64.80;;;;;;5014351;28;20680;-50
2021/04/25 06:56:47;;;;;;;3.63;2.47;;;8.70;64.70;;;;;;5014540;28;20479;-50
2021/04/25 06:59:13;;;;;;;5.80;2.67;;;8.70;64.60;;;;;;5032513;28;20474;-50
2021/04/25 07:01:39;;;;;;;3.10;2.20;;;8.70;64.40;;;;;;5032696;28;20762;-50
2021/04/25 07:04:06;;;;;;;10.73;2.87;;;8.90;64.50;;;;;;5032238;28;20524;-50
2021/04/25 07:06:34;;;;;;;5.93;3.00;;;8.60;63.70;;;;;;5032174;28;20467;-50
2021/04/25 07:09:00;;;;;;;6.80;2.90;;;9.20;64.60;;;;;;5032186;28;20470;-50
2021/04/25 07:11:26;;;;;;;4.50;2.80;;;9.10;64.30;;;;;;5014400;28;20540;-49
2021/04/25 07:13:53;;;;;;;7.80;2.53;;;8.90;63.80;;;;;;5031743;28;20438;-56
2021/04/25 07:16:19;;;;;;;4.40;3.00;;;9.20;63.60;;;;;;5032247;28;20458;-50
2021/04/25 07:18:45;;;;;;;3.67;2.23;;;9.00;63.20;;;;;;5032474;28;20521;-50
2021/04/25 07:21:12;;;;;;;4.13;2.50;;;9.10;63.30;;;;;;5032287;28;20470;-50
2021/04/25 07:23:39;;;;;;;4.20;2.17;;;9.10;61.60;;;;;;5031962;28;20846;-50
2021/04/25 07:26:05;;;;;;;3.50;2.20;;;9.30;61.10;;;;;;5031899;28;20541;-49
2021/04/25 07:28:31;;;;;;;4.17;2.43;;;9.10;60.80;;;;;;5031674;28;20756;-50
2021/04/25 07:30:57;;;;;;;6.97;2.73;;;9.50;61.30;;;;;;5031855;28;20821;-50
2021/04/25 07:33:24;;;;;;;3.87;2.30;;;10.00;60.60;;;;;;5031019;28;20487;-50
2021/04/25 07:35:50;;;;;;;3.23;1.80;;;9.40;59.90;;;;;;5013091;28;20487;-50
2021/04/25 07:38:17;;;;;;;2.67;1.80;;;9.80;59.60;;;;;;5031526;28;20791;-50
2021/04/25 07:40:44;;;;;;;4.17;2.50;;;9.90;58.60;;;;;;5030969;28;20815;-50
2021/04/25 07:43:10;;;;;;;2.73;1.83;;;9.20;58.10;;;;;;5030225;28;20447;-50
2021/04/25 07:45:36;;;;;;;3.00;2.10;;;9.70;58.40;;;;;;5030852;28;20541;-49
2021/04/25 07:48:03;;;;;;;4.60;2.23;;;10.00;58.10;;;;;;5030633;28;20530;-50
2021/04/25 07:50:29;;;;;;;3.20;2.20;;;10.00;57.80;;;;;;5030289;28;20440;-50
2021/04/25 07:52:55;;;;;;;3.83;2.60;;;9.90;57.90;;;;;;5030781;28;20435;-49
2021/04/25 07:55:22;;;;;;;3.20;1.77;;;9.50;56.90;;;;;;5012924;28;20464;-49
2021/04/25 07:57:49;;;;;;;2.83;1.87;;;9.80;56.90;;;;;;5030798;28;20432;-50
2021/04/25 08:00:16;;;;;;;3.20;1.90;;;10.10;55.50;;;;;;5031195;28;20534;-50
2021/04/25 08:02:42;;;;;;;5.83;2.73;;;9.70;56.60;;;;;;5030849;28;20447;-49
2021/04/25 08:05:10;;;;;;;4.57;2.63;;;9.50;57.10;;;;;;5030750;28;20487;-49
2021/04/25 08:07:36;;;;;;;6.23;3.70;;;9.60;58.20;;;;;;5031207;28;20435;-50
2021/04/25 08:10:04;;;;;;;5.80;2.83;;;9.30;59.50;;;;;;5031321;28;20443;-50
2021/04/25 08:12:31;;;;;;;3.30;2.47;;;9.40;58.80;;;;;;5030334;28;20465;-50
2021/04/25 08:14:58;;;;;;;2.50;2.00;;;10.00;57.40;;;;;;5030170;28;20458;-49
2021/04/25 08:17:24;;;;;;;4.40;1.93;;;9.90;57.90;;;;;;5012707;28;20443;-49
2021/04/25 08:19:50;;;;;;;5.77;2.90;;;10.30;57.20;;;;;;5030493;28;20936;-50
2021/04/25 08:22:17;;;;;;;8.40;2.10;;;9.80;57.80;;;;;;5030350;28;20513;-50
2021/04/25 08:24:44;;;;;;;13.80;10.10;;;9.30;58.30;;;;;;5030562;28;20809;-51
2021/04/25 08:27:10;;;;;;;4.80;2.57;;;9.90;59.90;;;;;;5030765;28;20812;-50
2021/04/25 08:29:37;;;;;;;4.27;2.07;;;9.60;62.30;;;;;;5030389;28;20458;-50
2021/04/25 08:32:04;;;;;;;2.57;1.90;;;10.00;61.00;;;;;;5030144;28;20498;-50
2021/04/25 08:34:30;;;;;;;3.20;1.70;;;9.50;64.10;;;;;;5030208;28;20816;-50
2021/04/25 08:36:56;;;;;;;5.70;2.47;;;10.00;63.90;;;;;;5030389;28;20951;-50
2021/04/25 08:39:23;;;;;;;5.47;2.37;;;9.00;65.40;;;;;;5031416;28;21023;-51
2021/04/25 08:41:49;;;;;;;3.20;2.17;;;9.70;67.70;;;;;;5030466;28;20447;-51
2021/04/25 08:44:18;;;;;;;7.20;2.70;;;9.60;68.30;;;;;;5029950;28;20473;-51
2021/04/25 08:46:48;;;;;;;5.43;2.37;;;9.50;69.60;;;;;;5029537;28;20459;-50
2021/04/25 08:49:17;;;;;;;5.00;2.63;;;9.60;70.10;;;;;;5029935;28;20435;-50
2021/04/25 08:51:43;;;;;;;3.80;2.33;;;9.70;70.90;;;;;;5030114;28;20440;-51
2021/04/25 08:54:12;;;;;;;4.90;1.90;;;9.90;69.90;;;;;;5030072;28;20538;-51
2021/04/25 08:56:38;;;;;;;4.43;1.93;;;9.50;69.10;;;;;;5033768;28;20430;-50
2021/04/25 08:59:05;;;;;;;4.93;2.20;;;9.50;68.80;;;;;;5033310;28;20435;-50
2021/04/25 09:01:31;;;;;;;4.60;2.70;;;9.80;68.40;;;;;;5033640;28;20431;-50
2021/04/25 09:04:01;;;;;;;4.53;1.73;;;9.70;67.70;;;;;;5033364;28;20498;-50
2021/04/25 09:06:27;;;;;;;3.37;1.90;;;9.20;68.30;;;;;;5032950;28;20969;-50
2021/04/25 09:08:57;;;;;;;4.00;3.00;;;9.40;69.80;;;;;;5032839;28;20436;-50
2021/04/25 09:11:31;;;;;;;3.87;2.53;;;9.20;71.40;;;;;;5033204;28;20448;-50
2021/04/25 09:14:17;;;;;;;3.17;2.37;;;9.20;73.80;;;;;;5033099;28;20457;-50
2021/04/25 09:16:45;;;;;;;4.90;2.83;;;9.60;74.40;;;;;;5015241;28;20471;-50
2021/04/25 09:19:13;;;;;;;5.57;2.60;;;9.60;74.00;;;;;;5032940;28;20939;-50
2021/04/25 09:21:57;;;;;;;6.80;2.50;;;8.90;73.80;;;;;;5033107;28;20784;-50
2021/04/25 09:24:25;;;;;;;3.90;2.53;;;9.80;73.60;;;;;;5032909;28;20487;-51
2021/04/25 09:26:51;;;;;;;5.33;2.50;;;9.30;73.20;;;;;;5033098;28;20431;-51
2021/04/25 09:29:20;;;;;;;4.17;2.40;;;9.30;72.60;;;;;;5033003;28;20444;-50
2021/04/25 09:31:47;;;;;;;9.20;2.40;;;9.00;72.10;;;;;;5032913;28;20461;-50
2021/04/25 09:34:24;;;;;;;4.27;2.50;;;9.10;71.70;;;;;;5033142;28;20727;-50
2021/04/25 09:36:50;;;;;;;3.50;1.90;;;9.30;72.20;;;;;;5032430;28;20559;-50
2021/04/25 09:39:17;;;;;;;4.23;2.67;;;9.70;71.90;;;;;;5032827;28;20439;-50
2021/04/25 09:41:45;;;;;;;2.87;2.10;;;9.90;72.50;;;;;;5032805;28;20477;-51
2021/04/25 09:44:30;;;;;;;5.33;2.80;;;9.70;71.90;;;;;;5032483;28;20486;-50
2021/04/25 09:47:00;;;;;;;4.83;2.30;;;9.10;70.70;;;;;;5032752;28;20852;-50
2021/04/25 09:49:38;;;;;;;4.10;2.53;;;9.70;69.80;;;;;;5033198;28;20925;-48
2021/04/25 09:52:05;;;;;;;2.53;2.23;;;10.30;68.90;;;;;;5032582;28;20454;-49
2021/04/25 09:54:31;;;;;;;4.97;2.20;;;10.30;67.70;;;;;;5032014;28;20427;-48
2021/04/25 09:56:58;;;;;;;3.43;2.33;;;9.90;67.90;;;;;;5032138;28;20432;-48
2021/04/25 09:59:24;;;;;;;3.60;2.60;;;10.50;66.80;;;;;;5031833;28;20448;-49
2021/04/25 10:02:06;;;;;;;4.13;2.40;;;10.70;66.10;;;;;;5032391;28;20901;-49
2021/04/25 10:04:34;;;;;;;8.53;2.97;;;11.20;65.30;;;;;;5031670;28;20427;-50
2021/04/25 10:07:03;;;;;;;5.33;2.73;;;11.20;64.10;;;;;;5031662;28;20423;-48
2021/04/25 10:09:30;;;;;;;6.90;3.57;;;11.50;63.80;;;;;;5031739;28;20466;-50
2021/04/25 10:11:59;;;;;;;3.50;2.63;;;11.10;62.10;;;;;;5031722;28;20506;-49
2021/04/25 10:14:26;;;;;;;3.47;2.30;;;11.00;62.30;;;;;;5031893;28;20534;-49
2021/04/25 10:16:53;;;;;;;4.67;2.77;;;10.90;62.30;;;;;;5032030;28;20946;-48
2021/04/25 10:19:19;;;;;;;4.63;2.77;;;10.90;62.10;;;;;;5031794;28;20435;-49
2021/04/25 10:21:46;;;;;;;4.03;2.57;;;10.80;61.60;;;;;;5031846;28;20589;-48
2021/04/25 10:24:18;;;;;;;3.87;2.73;;;11.00;61.90;;;;;;5032120;28;20435;-49
2021/04/25 10:27:04;;;;;;;5.37;2.37;;;11.00;62.00;;;;;;5031625;28;20447;-49
2021/04/25 10:29:34;;;;;;;4.27;2.07;;;10.90;61.40;;;;;;5032055;28;20517;-49
2021/04/25 10:32:03;;;;;;;5.63;2.50;;;11.00;60.20;;;;;;5031999;28;20436;-48
2021/04/25 10:34:31;;;;;;;5.33;2.43;;;11.00;58.60;;;;;;5031115;28;20448;-49
2021/04/25 10:37:00;;;;;;;3.77;1.93;;;11.00;57.20;;;;;;5037917;23;20498;-48
2021/04/25 10:39:39;;;;;;;4.07;1.70;;;10.60;57.20;;;;;;5033401;28;20954;-48
2021/04/25 10:42:35;;;;;;;2.97;1.90;;;10.70;56.10;;;;;;5015248;28;20459;-49
2021/04/25 10:45:16;;;;;;;3.10;2.30;;;10.90;56.80;;;;;;5033185;28;20525;-47
2021/04/25 10:47:44;;;;;;;2.60;2.00;;;10.70;56.00;;;;;;5033759;28;20534;-49
2021/04/25 10:50:42;;;;;;;2.90;2.10;;;11.00;56.50;;;;;;5015720;28;20451;-47
2021/04/25 10:53:25;;;;;;;3.57;1.60;;;11.30;56.40;;;;;;5033132;28;20463;-47
2021/04/25 10:56:31;;;;;;;3.17;1.80;;;11.40;56.00;;;;;;5033282;28;20454;-47
2021/04/25 10:59:27;;;;;;;2.73;2.20;;;11.40;54.60;;;;;;5033556;28;20445;-48
2021/04/25 11:01:54;;;;;;;4.67;1.80;;;11.00;54.30;;;;;;5033486;28;20440;-48
2021/04/25 11:05:03;;;;;;;2.40;2.00;;;11.00;54.60;;;;;;5032877;28;20455;-48
2021/04/25 11:07:44;;;;;;;2.70;1.97;;;11.10;54.80;;;;;;5033162;28;20454;-47
2021/04/25 11:10:11;;;;;;;3.53;1.80;;;11.20;54.90;;;;;;5033260;28;20464;-48
2021/04/25 11:12:40;;;;;;;2.30;1.57;;;11.30;55.10;;;;;;5033309;28;20443;-47
2021/04/25 11:15:09;;;;;;;3.73;1.40;;;11.60;55.00;;;;;;5032934;28;20436;-48
2021/04/25 11:17:35;;;;;;;4.87;2.20;;;11.00;54.60;;;;;;5032958;28;20428;-47
2021/04/25 11:20:29;;;;;;;4.20;1.90;;;11.10;54.70;;;;;;5014856;28;20455;-48
2021/04/25 11:22:55;;;;;;;2.20;1.63;;;11.40;55.00;;;;;;5032720;28;20538;-49
2021/04/25 11:25:33;;;;;;;1.47;1.30;;;11.20;53.10;;;;;;5032645;28;20909;-48
2021/04/25 11:28:00;;;;;;;4.27;1.87;;;11.30;53.40;;;;;;5032445;28;20438;-48
2021/04/25 11:30:39;;;;;;;5.50;1.50;;;11.40;52.30;;;;;;5032842;28;20924;-48
2021/04/25 11:33:31;;;;;;;2.47;1.47;;;11.40;52.80;;;;;;5032130;28;20428;-49
2021/04/25 11:36:35;;;;;;;3.57;1.87;;;11.20;53.50;;;;;;5036147;28;20514;-48
2021/04/25 11:39:03;;;;;;;1.80;1.10;;;11.10;53.50;;;;;;5037892;28;20441;-48
2021/04/25 11:41:31;;;;;;;2.13;1.20;;;11.10;52.10;;;;;;5033686;28;20856;-48
2021/04/25 11:43:58;;;;;;;3.30;1.50;;;11.20;49.90;;;;;;5033563;28;20427;-51
2021/04/25 11:46:32;;;;;;;3.40;1.30;;;11.00;48.50;;;;;;5032755;28;20545;-50
2021/04/25 11:49:00;;;;;;;2.50;1.37;;;11.30;46.30;;;;;;5014709;28;20459;-49
2021/04/25 11:51:27;;;;;;;6.20;2.20;;;10.70;45.50;;;;;;5032075;28;20436;-49
2021/04/25 11:53:53;;;;;;;3.13;1.73;;;11.50;45.50;;;;;;5031676;28;20853;-50
2021/04/25 11:56:28;;;;;;;2.87;2.47;;;11.60;44.70;;;;;;5032731;28;20444;-49
2021/04/25 11:59:06;;;;;;;1.90;1.10;;;11.40;44.00;;;;;;5033697;28;20435;-48
2021/04/25 12:01:32;;;;;;;2.50;1.20;;;12.00;43.90;;;;;;5034584;28;20504;-50
2021/04/25 12:03:59;;;;;;;1.77;1.30;;;12.00;43.70;;;;;;5032108;28;20443;-51
2021/04/25 12:06:25;;;;;;;2.80;1.37;;;11.40;43.60;;;;;;5031806;28;20491;-58
2021/04/25 12:08:52;;;;;;;2.80;1.20;;;12.10;43.80;;;;;;5031931;28;20432;-48
2021/04/25 12:11:23;;;;;;;3.07;1.20;;;12.10;43.70;;;;;;5032503;28;20496;-49
2021/04/25 12:13:49;;;;;;;5.40;0.97;;;12.20;43.40;;;;;;5031511;28;20455;-49
2021/04/25 12:16:19;;;;;;;4.80;1.20;;;11.80;43.50;;;;;;5032009;28;20474;-50
2021/04/25 12:18:46;;;;;;;0.97;0.60;;;11.90;44.00;;;;;;5031782;28;20949;-49
2021/04/25 12:21:16;;;;;;;2.00;1.00;;;11.60;42.80;;;;;;5031313;28;20462;-49
2021/04/25 12:23:45;;;;;;;4.97;0.83;;;11.50;42.70;;;;;;5030902;28;20436;-49
2021/04/25 12:26:14;;;;;;;2.03;1.60;;;11.50;43.20;;;;;;5031230;28;20483;-49
2021/04/25 12:28:42;;;;;;;1.70;0.87;;;11.40;42.90;;;;;;5031457;28;20440;-50
2021/04/25 12:31:08;;;;;;;1.80;0.90;;;11.10;43.00;;;;;;5031353;28;20440;-49
2021/04/25 12:33:41;;;;;;;2.73;1.30;;;11.30;43.40;;;;;;5030830;28;20471;-50
2021/04/25 12:36:09;;;;;;;2.43;1.33;;;11.30;43.20;;;;;;5031327;28;20474;-49
2021/04/25 12:38:37;;;;;;;1.63;0.90;;;11.30;42.60;;;;;;5031409;28;20468;-49
2021/04/25 12:41:06;;;;;;;1.60;0.90;;;11.40;42.90;;;;;;5031388;28;20446;-49
2021/04/25 12:43:37;;;;;;;2.13;0.90;;;11.50;42.80;;;;;;5031235;28;20433;-49
2021/04/25 12:46:15;;;;;;;1.40;0.80;;;11.70;42.00;;;;;;5031563;28;20496;-53
2021/04/25 12:48:43;;;;;;;2.10;0.97;;;11.70;41.40;;;;;;5031485;28;20849;-50
2021/04/25 12:51:14;;;;;;;3.00;0.93;;;11.80;40.00;;;;;;5031586;28;20444;-49
2021/04/25 12:53:44;;;;;;;4.67;1.37;;;11.80;40.10;;;;;;5031746;28;20531;-49
2021/04/25 12:56:28;;;;;;;3.67;2.10;;;11.70;40.90;;;;;;5031467;28;20457;-48
2021/04/25 12:59:07;;;;;;;2.23;0.90;;;11.60;41.10;;;;;;5031107;28;20435;-48